Time;durP1;ratioP1;P1;durP2;ratioP2;P2;SDS_P1;SDS_P2;PMS_P1;PMS_P2;Temp;Humidity;BMP_temperature;BMP_pressure;BME280_temperature;BME280_humidity;BME280_pressure;Samples;Min_cycle;Max_cycle;Signal;HPM_P1;HPM_P2
2021/12/13 00:00:14;;;;;;;3.42;2.78;;;5.90;99.90;;;;;;6283642;28;20031;-82
2021/12/13 00:03:26;;;;;;;4.35;2.45;;;4.20;99.90;;;;;;6316674;28;20039;-82
2021/12/13 00:06:30;;;;;;;3.58;2.75;;;6.50;99.90;;;;;;6299367;28;20031;-82
2021/12/13 00:09:33;;;;;;;4.00;2.70;;;4.10;99.90;;;;;;6299902;28;20528;-83
2021/12/13 00:12:37;;;;;;;3.10;2.50;;;4.10;99.90;;;;;;6300072;28;20024;-82
2021/12/13 00:15:44;;;;;;;3.97;2.60;;;4.30;99.90;;;;;;6283172;28;20047;-81
2021/12/13 00:18:46;;;;;;;3.10;2.33;;;6.50;99.90;;;;;;6300184;28;20020;-82
2021/12/13 00:21:56;;;;;;;4.00;2.70;;;4.10;99.90;;;;;;6314355;28;20035;-82
2021/12/13 00:25:00;;;;;;;3.85;2.50;;;4.10;99.90;;;;;;6301060;28;20106;-82
2021/12/13 00:28:10;;;;;;;4.05;2.78;;;4.40;99.90;;;;;;6299608;28;20048;-82
2021/12/13 00:31:37;;;;;;;3.13;2.50;;;4.70;99.90;;;;;;6316410;28;20063;-82
2021/12/13 00:34:53;;;;;;;2.50;2.30;;;4.10;99.90;;;;;;6317350;28;20036;-81
2021/12/13 00:38:00;;;;;;;3.78;2.20;;;3.90;99.90;;;;;;6305096;28;20036;-81
2021/12/13 00:41:05;;;;;;;3.55;2.65;;;4.00;99.90;;;;;;6308010;28;20035;-83
2021/12/13 00:44:07;;;;;;;2.97;2.45;;;4.00;99.90;;;;;;6290683;28;20035;-83
2021/12/13 00:47:13;;;;;;;3.38;2.70;;;4.20;99.90;;;;;;6308058;28;20161;-83
2021/12/13 00:50:23;;;;;;;2.25;2.05;;;4.30;99.90;;;;;;6308314;28;20024;-83
2021/12/13 00:53:24;;;;;;;3.85;2.47;;;;;;;;;;6307807;28;20031;-82
2021/12/13 00:56:50;;;;;;;3.15;2.60;;;4.10;99.90;;;;;;6307864;28;20466;-82
2021/12/13 01:00:03;;;;;;;3.47;2.70;;;4.30;99.90;;;;;;6324349;28;20028;-82
2021/12/13 01:03:09;;;;;;;3.00;2.42;;;4.20;99.90;;;;;;6324144;28;20059;-81
2021/12/13 01:06:47;;;;;;;4.82;2.60;;;4.60;99.90;;;;;;6291480;28;20084;-82
2021/12/13 01:10:12;;;;;;;2.92;2.40;;;4.30;99.90;;;;;;6323817;28;20462;-82
2021/12/13 01:13:15;;;;;;;5.28;2.83;;;4.20;99.90;;;;;;6324436;28;20035;-82
2021/12/13 01:16:34;;;;;;;2.80;2.50;;;4.40;99.90;;;;;;6307507;28;20090;-82
2021/12/13 01:19:54;;;;;;;2.80;2.33;;;4.20;99.90;;;;;;6325413;28;20024;-81
2021/12/13 01:23:01;;;;;;;3.70;2.58;;;4.30;99.90;;;;;;6309502;28;20081;-81
2021/12/13 01:26:14;;;;;;;2.83;2.63;;;5.00;99.90;;;;;;6307800;28;20028;-81
2021/12/13 01:29:24;;;;;;;2.97;2.42;;;4.20;99.90;;;;;;6309278;28;20056;-82
2021/12/13 01:32:26;;;;;;;2.88;2.47;;;5.30;99.90;;;;;;6290343;28;20509;-81
2021/12/13 01:35:30;;;;;;;2.50;2.30;;;4.00;99.90;;;;;;6290688;28;20028;-81
2021/12/13 01:38:36;;;;;;;3.22;2.22;;;4.10;99.90;;;;;;6307677;28;20040;-81
2021/12/13 01:41:40;;;;;;;2.50;2.13;;;5.80;99.90;;;;;;6307448;28;20032;-81
2021/12/13 01:44:43;;;;;;;2.03;1.92;;;5.90;99.90;;;;;;6290797;28;20031;-80
2021/12/13 01:47:44;;;;;;;2.50;2.05;;;4.20;99.90;;;;;;6290599;28;20057;-81
2021/12/13 01:50:51;;;;;;;3.35;2.20;;;;;;;;;;6285629;28;20029;-80
2021/12/13 01:53:58;;;;;;;2.30;2.10;;;4.20;99.90;;;;;;6303988;28;20118;-80
2021/12/13 02:00:21;;;;;;;1.77;1.67;;;4.40;99.90;;;;;;6304815;28;20387;-81
2021/12/13 02:03:22;;;;;;;2.40;2.20;;;4.20;99.90;;;;;;6319855;28;20024;-80
2021/12/13 02:06:25;;;;;;;3.33;3.00;;;4.30;99.90;;;;;;6302957;28;20032;-82
2021/12/13 02:09:26;;;;;;;;;;;4.80;99.90;;;;;;6302865;28;20028;-83
2021/12/13 02:12:29;;;;;;;2.67;2.35;;;5.10;99.90;;;;;;6319695;28;20286;-82
2021/12/13 02:19:01;;;;;;;2.53;2.30;;;5.40;99.90;;;;;;6282644;28;20043;-83
2021/12/13 02:22:34;;;;;;;3.38;2.00;;;4.40;99.90;;;;;;6285829;28;20436;-82
2021/12/13 02:25:46;;;;;;;2.85;2.58;;;4.60;99.90;;;;;;6311690;28;20075;-82
2021/12/13 02:28:49;;;;;;;2.28;2.08;;;4.50;99.90;;;;;;6303319;28;20027;-83
2021/12/13 02:31:49;;;;;;;2.80;2.17;;;5.40;99.90;;;;;;6302186;28;20052;-83
2021/12/13 02:34:50;;;;;;;2.88;2.30;;;5.50;99.90;;;;;;6285251;28;20412;-83
2021/12/13 02:37:50;;;;;;;2.55;2.20;;;7.30;99.90;;;;;;6302186;28;20030;-83
2021/12/13 02:40:51;;;;;;;2.45;2.25;;;4.50;99.90;;;;;;6318668;28;20537;-82
2021/12/13 02:43:54;;;;;;;3.03;2.65;;;6.00;99.90;;;;;;6302041;28;20051;-82
2021/12/13 02:46:59;;;;;;;2.83;2.15;;;4.50;99.90;;;;;;6301867;28;20038;-82
2021/12/13 02:50:00;;;;;;;2.92;2.40;;;4.20;99.90;;;;;;6302008;28;20028;-82
2021/12/13 02:53:02;;;;;;;4.32;2.60;;;5.80;99.90;;;;;;6284996;28;20464;-82
2021/12/13 02:56:02;;;;;;;3.17;2.40;;;5.40;99.90;;;;;;6284983;28;20040;-83
2021/12/13 02:59:04;;;;;;;3.25;2.30;;;4.40;99.90;;;;;;6301643;28;20086;-83
2021/12/13 03:02:30;;;;;;;3.15;2.30;;;4.50;99.90;;;;;;6300681;28;20032;-83
2021/12/13 03:05:35;;;;;;;2.50;2.00;;;4.40;99.90;;;;;;6317448;28;20047;-83
2021/12/13 03:08:50;;;;;;;2.85;1.85;;;5.80;99.90;;;;;;6285254;28;20370;-82
2021/12/13 03:11:51;;;;;;;2.20;2.00;;;4.40;99.90;;;;;;6301629;28;20024;-82
2021/12/13 03:14:56;;;;;;;1.90;1.73;;;4.40;99.90;;;;;;6317671;28;20062;-83
2021/12/13 03:18:00;;;;;;;2.53;2.13;;;4.50;99.90;;;;;;6284748;28;20478;-82
2021/12/13 03:21:01;;;;;;;1.75;1.65;;;4.40;99.90;;;;;;6301566;28;20070;-83
2021/12/13 03:24:19;;;;;;;1.63;1.52;;;4.00;99.90;;;;;;6317837;28;20024;-83
2021/12/13 03:27:26;;;;;;;2.22;2.03;;;4.60;99.90;;;;;;6318048;28;20069;-82
2021/12/13 03:30:36;;;;;;;3.28;2.35;;;5.80;99.90;;;;;;6317553;28;20048;-82
2021/12/13 03:33:48;;;;;;;4.13;2.80;;;4.40;99.90;;;;;;6302265;28;20032;-83
2021/12/13 03:36:54;;;;;;;3.83;2.95;;;4.30;99.90;;;;;;6301138;28;20081;-82
2021/12/13 03:40:10;;;;;;;4.20;2.75;;;4.50;99.90;;;;;;6317494;28;20466;-83
2021/12/13 03:43:14;;;;;;;3.60;2.63;;;4.40;99.90;;;;;;6301009;28;20038;-82
2021/12/13 03:46:15;;;;;;;4.10;2.70;;;5.10;99.90;;;;;;6284300;28;20470;-82
2021/12/13 03:49:18;;;;;;;3.10;2.42;;;4.50;99.90;;;;;;6300415;28;20027;-83
2021/12/13 03:52:19;;;;;;;;;;;4.30;99.90;;;;;;6284483;28;20069;-83
2021/12/13 03:55:21;;;;;;;3.70;2.70;;;4.30;99.90;;;;;;6300612;28;19918;-83
2021/12/13 03:58:23;;;;;;;2.88;2.67;;;4.70;99.90;;;;;;6299970;28;20119;-83
2021/12/13 04:01:25;;;;;;;3.38;2.50;;;4.70;99.90;;;;;;6300038;28;20492;-82
2021/12/13 04:04:31;;;;;;;3.20;2.90;;;4.10;99.90;;;;;;6317203;28;20059;-83
2021/12/13 04:07:37;;;;;;;5.13;2.80;;;5.10;99.90;;;;;;6317182;28;20119;-84
2021/12/13 04:10:43;;;;;;;4.32;3.42;;;5.00;99.90;;;;;;6283371;28;20165;-82
2021/12/13 04:14:00;;;;;;;6.82;4.32;;;5.20;99.90;;;;;;6283528;28;20052;-82
2021/12/13 04:17:33;;;;;;;5.05;4.22;;;3.70;99.90;;;;;;6301763;28;20122;-83
2021/12/13 04:20:36;;;;;;;6.28;4.30;;;3.90;99.90;;;;;;6303186;28;20036;-83
2021/12/13 04:23:36;;;;;;;5.57;4.38;;;5.10;99.90;;;;;;6283419;28;20028;-83
2021/12/13 04:26:42;;;;;;;5.90;3.67;;;3.80;99.90;;;;;;6282859;28;20115;-82
2021/12/13 04:29:43;;;;;;;3.28;2.80;;;4.00;99.90;;;;;;6283584;28;20401;-83
2021/12/13 04:32:47;;;;;;;3.03;2.50;;;3.40;99.90;;;;;;6283270;28;20116;-83
2021/12/13 04:35:51;;;;;;;3.97;3.30;;;4.00;99.90;;;;;;6316027;28;20081;-83
2021/12/13 04:39:03;;;;;;;3.95;3.20;;;3.50;99.90;;;;;;6315617;28;20068;-83
2021/12/13 04:42:06;;;;;;;2.80;2.50;;;3.50;99.90;;;;;;6316166;28;20028;-83
2021/12/13 04:45:13;;;;;;;4.55;2.50;;;5.20;99.90;;;;;;6299931;28;20042;-82
2021/12/13 04:48:19;;;;;;;3.63;2.90;;;3.30;99.90;;;;;;6282942;28;20565;-83
2021/12/13 04:51:20;;;;;;;4.72;3.40;;;3.30;99.90;;;;;;6315903;28;20462;-81
2021/12/13 04:54:20;;;;;;;7.07;3.75;;;3.40;99.90;;;;;;6316114;28;20766;-83
2021/12/13 04:57:21;;;;;;;4.30;3.30;;;3.30;99.90;;;;;;6298938;28;20138;-81
2021/12/13 05:00:23;;;;;;;4.18;3.40;;;3.00;99.90;;;;;;6281968;28;20035;-83
2021/12/13 05:03:27;;;;;;;4.63;3.47;;;2.70;99.90;;;;;;6282848;28;20062;-82
2021/12/13 05:06:29;;;;;;;4.65;4.00;;;3.10;99.90;;;;;;6282849;28;20036;-83
2021/12/13 05:09:30;;;;;;;4.47;3.58;;;;;;;;;;6282568;28;20249;-82
2021/12/13 05:12:31;;;;;;;6.55;3.63;;;;;;;;;;6315887;28;20491;-82
2021/12/13 05:15:33;;;;;;;5.15;3.05;;;3.20;99.90;;;;;;6298930;28;20028;-83
2021/12/13 05:18:34;;;;;;;6.18;3.53;;;;;;;;;;6299469;28;20032;-83
2021/12/13 05:21:43;;;;;;;5.47;4.10;;;2.80;99.90;;;;;;6316611;28;20051;-82
2021/12/13 05:24:49;;;;;;;6.53;5.45;;;2.80;99.90;;;;;;6302256;28;20047;-81
2021/12/13 05:27:57;;;;;;;7.22;4.85;;;2.70;99.90;;;;;;6303921;28;20066;-82
2021/12/13 05:31:05;;;;;;;5.85;4.53;;;2.70;99.90;;;;;;6302730;28;20101;-83
2021/12/13 05:34:06;;;;;;;7.03;4.75;;;2.60;99.90;;;;;;6320034;28;20454;-82
2021/12/13 05:37:07;;;;;;;17.48;11.52;;;;;;;;;;6302997;28;20489;-83
2021/12/13 05:40:10;;;;;;;12.02;7.90;;;2.50;99.90;;;;;;6319825;28;20059;-83
2021/12/13 05:43:36;;;;;;;10.38;7.53;;;2.50;99.90;;;;;;6309185;28;20063;-83
2021/12/13 05:46:44;;;;;;;8.30;5.47;;;2.40;99.90;;;;;;6314512;28;20050;-83
2021/12/13 05:49:45;;;;;;;10.85;5.82;;;2.50;99.90;;;;;;6302527;28;20035;-84
2021/12/13 05:52:46;;;;;;;8.88;5.10;;;;;;;;;;6286440;28;20028;-83
2021/12/13 05:55:50;;;;;;;5.65;3.78;;;2.60;99.90;;;;;;6320192;28;20036;-85
2021/12/13 05:59:08;;;;;;;4.95;3.30;;;2.40;99.90;;;;;;6319861;28;20390;-88
2021/12/13 06:02:31;;;;;;;3.17;2.67;;;2.50;99.90;;;;;;6287493;28;20474;-85
2021/12/13 06:05:35;;;;;;;6.93;2.83;;;2.40;99.90;;;;;;6319245;28;20063;-85
2021/12/13 06:08:49;;;;;;;4.43;2.72;;;2.30;99.90;;;;;;6286544;28;20629;-82
2021/12/13 06:11:51;;;;;;;7.10;3.80;;;2.50;99.90;;;;;;6304027;28;20126;-83
2021/12/13 06:14:52;;;;;;;3.88;3.22;;;2.30;99.90;;;;;;6302406;28;20028;-85
2021/12/13 06:17:57;;;;;;;3.75;3.22;;;2.30;99.90;;;;;;6319395;28;20088;-83
2021/12/13 06:21:32;;;;;;;5.90;5.38;;;2.10;99.90;;;;;;6319616;28;20111;-82
2021/12/13 06:24:45;;;;;;;4.22;2.95;;;2.20;99.90;;;;;;6319331;28;20051;-83
2021/12/13 06:27:48;;;;;;;6.80;3.28;;;1.90;99.90;;;;;;6303991;28;20024;-83
2021/12/13 06:31:05;;;;;;;8.43;3.78;;;2.30;99.90;;;;;;6301988;28;20105;-84
2021/12/13 06:34:13;;;;;;;8.68;4.90;;;2.10;99.90;;;;;;6299502;28;20052;-86
2021/12/13 06:37:13;;;;;;;5.57;3.53;;;2.20;99.90;;;;;;6284744;28;20132;-85
2021/12/13 06:40:26;;;;;;;6.20;4.60;;;2.10;99.90;;;;;;6284163;28;20482;-86
2021/12/13 06:43:31;;;;;;;5.28;4.32;;;2.00;99.90;;;;;;6303227;28;20032;-87
2021/12/13 06:46:34;;;;;;;7.45;3.90;;;1.80;99.90;;;;;;6301992;28;20028;-91
2021/12/13 06:49:44;;;;;;;7.75;5.63;;;2.00;99.90;;;;;;6319362;28;20080;-87
2021/12/13 06:52:46;;;;;;;5.65;4.28;;;;;;;;;;6302169;28;20097;-86
2021/12/13 06:55:47;;;;;;;10.40;7.20;;;;;;;;;;6302136;28;20115;-84
2021/12/13 06:58:48;;;;;;;9.57;7.25;;;;;;;;;;6302146;28;20063;-89
2021/12/13 07:02:20;;;;;;;8.43;5.93;;;1.90;99.90;;;;;;6301070;28;20442;-85
2021/12/13 07:05:32;;;;;;;11.25;8.18;;;1.90;99.90;;;;;;6262764;28;20992;-86
2021/12/13 07:08:36;;;;;;;7.82;6.45;;;2.00;99.90;;;;;;6237320;28;20644;-87
2021/12/13 07:11:39;;;;;;;5.97;5.30;;;1.90;99.90;;;;;;6257056;28;20035;-88
2021/12/13 07:14:42;;;;;;;8.13;7.22;;;;;;;;;;6220468;28;20049;-83
2021/12/13 07:17:43;;;;;;;7.15;6.03;;;;;;;;;;6251653;28;20033;-81
2021/12/13 07:20:52;;;;;;;7.30;5.55;;;2.60;99.90;;;;;;6260665;28;20116;-83
2021/12/13 07:24:02;;;;;;;8.10;6.65;;;2.80;99.90;;;;;;6252874;28;20733;-81
2021/12/13 07:27:07;;;;;;;8.10;6.18;;;2.60;99.90;;;;;;6241844;28;20033;-82
2021/12/13 07:30:28;;;;;;;5.85;5.20;;;2.50;99.90;;;;;;6228782;28;20148;-81
2021/12/13 07:33:37;;;;;;;5.93;5.25;;;2.40;99.90;;;;;;6248826;28;20040;-82
2021/12/13 07:36:38;;;;;;;7.13;6.20;;;2.40;99.90;;;;;;6248054;28;20514;-83
2021/12/13 07:39:38;;;;;;;9.25;5.85;;;2.30;99.90;;;;;;6223128;28;20030;-83
2021/12/13 07:42:39;;;;;;;15.57;9.50;;;2.10;99.90;;;;;;6296035;28;20064;-83
2021/12/13 07:45:57;;;;;;;12.82;5.95;;;2.40;99.90;;;;;;6283357;28;20118;-80
2021/12/13 07:49:08;;;;;;;11.52;6.75;;;2.70;99.90;;;;;;6317316;28;20036;-81
2021/12/13 07:52:10;;;;;;;8.20;6.45;;;2.40;99.90;;;;;;6301306;28;20032;-82
2021/12/13 07:55:15;;;;;;;8.05;6.07;;;2.70;99.90;;;;;;6300799;28;20032;-82
2021/12/13 07:58:35;;;;;;;8.77;5.85;;;2.70;99.90;;;;;;6283096;28;20055;-80
2021/12/13 08:01:58;;;;;;;5.97;5.28;;;2.80;99.90;;;;;;6316756;28;20028;-82
2021/12/13 08:05:12;;;;;;;5.60;4.80;;;3.60;99.90;;;;;;6318145;28;20081;-82
2021/12/13 08:08:22;;;;;;;9.32;5.65;;;4.60;99.90;;;;;;6316639;28;20028;-80
2021/12/13 08:11:47;;;;;;;6.47;5.20;;;5.30;99.90;;;;;;6300719;28;20024;-80
2021/12/13 08:14:49;;;;;;;5.63;4.60;;;6.10;99.90;;;;;;6299264;28;20035;-81
2021/12/13 08:17:54;;;;;;;5.53;4.45;;;6.70;99.90;;;;;;6299340;28;20556;-80
2021/12/13 08:20:57;;;;;;;15.30;10.88;;;7.20;99.90;;;;;;6298466;28;20042;-79
2021/12/13 08:24:00;;;;;;;6.28;5.68;;;7.60;99.90;;;;;;6298768;28;20558;-79
2021/12/13 08:27:14;;;;;;;5.85;5.32;;;7.70;99.90;;;;;;6288678;28;20032;-80
2021/12/13 08:30:18;;;;;;;5.85;5.35;;;8.40;99.90;;;;;;6282498;28;20375;-81
2021/12/13 08:33:25;;;;;;;6.20;4.75;;;8.60;99.90;;;;;;6299126;28;20491;-81
2021/12/13 08:36:35;;;;;;;4.45;3.95;;;8.90;99.90;;;;;;6282736;28;20036;-83
2021/12/13 08:39:36;;;;;;;5.80;4.05;;;9.10;99.90;;;;;;6315856;28;20047;-81
2021/12/13 08:42:39;;;;;;;6.57;5.15;;;8.90;99.90;;;;;;6299322;28;20496;-81
2021/12/13 08:45:41;;;;;;;6.97;5.30;;;9.20;99.90;;;;;;6316335;28;20028;-80
2021/12/13 08:48:47;;;;;;;7.67;6.47;;;9.90;99.90;;;;;;6282206;28;20470;-83
2021/12/13 08:52:08;;;;;;;6.55;5.10;;;10.10;99.90;;;;;;6281807;28;20024;-81
2021/12/13 08:55:12;;;;;;;5.63;4.45;;;10.10;99.90;;;;;;6314258;28;20024;-81
2021/12/13 08:58:17;;;;;;;8.45;4.05;;;10.50;99.90;;;;;;6318124;28;20032;-80
2021/12/13 09:01:18;;;;;;;4.43;4.03;;;9.30;99.90;;;;;;6303316;28;20035;-81
2021/12/13 09:04:27;;;;;;;4.57;3.70;;;11.20;99.90;;;;;;6287205;28;20020;-82
2021/12/13 09:07:27;;;;;;;4.25;3.40;;;11.00;99.90;;;;;;6287196;28;20028;-83
2021/12/13 09:11:04;;;;;;;4.60;4.20;;;11.10;99.90;;;;;;6286623;28;20034;-82
2021/12/13 09:14:10;;;;;;;4.43;3.63;;;11.50;99.90;;;;;;6304499;28;20474;-82
2021/12/13 09:17:25;;;;;;;4.68;3.78;;;11.60;99.90;;;;;;6320365;28;20048;-81
2021/12/13 09:20:32;;;;;;;4.85;3.97;;;11.60;99.90;;;;;;6288925;28;20024;-81
2021/12/13 09:23:47;;;;;;;5.15;3.85;;;11.70;99.90;;;;;;6304514;28;20128;-81
2021/12/13 09:26:48;;;;;;;4.43;3.97;;;12.00;99.90;;;;;;6303677;28;20032;-84
2021/12/13 09:29:50;;;;;;;7.45;5.53;;;12.10;99.90;;;;;;6303336;28;20048;-83
2021/12/13 09:33:08;;;;;;;5.35;4.00;;;12.30;99.90;;;;;;6303039;28;20032;-80
2021/12/13 09:36:20;;;;;;;3.83;3.10;;;12.50;99.90;;;;;;6303132;28;20048;-82
2021/12/13 09:39:23;;;;;;;3.88;3.30;;;12.60;99.90;;;;;;6287180;28;20028;-84
2021/12/13 09:42:24;;;;;;;5.50;3.78;;;12.50;99.90;;;;;;6287039;28;20035;-82
2021/12/13 09:45:35;;;;;;;4.65;2.53;;;12.90;99.90;;;;;;6286622;28;20028;-82
2021/12/13 09:48:42;;;;;;;5.90;3.05;;;12.90;99.90;;;;;;6304080;28;20592;-82
2021/12/13 09:51:46;;;;;;;4.15;2.92;;;12.70;99.90;;;;;;6286766;28;20028;-84
2021/12/13 09:54:51;;;;;;;9.93;3.05;;;13.00;99.90;;;;;;6286731;28;20039;-83
2021/12/13 09:58:05;;;;;;;5.60;3.55;;;13.00;99.90;;;;;;6302863;28;20131;-83
2021/12/13 10:01:11;;;;;;;3.90;3.13;;;13.30;99.90;;;;;;6302723;28;20036;-83
2021/12/13 10:04:36;;;;;;;3.50;2.80;;;13.10;99.90;;;;;;6303646;28;20028;-82
2021/12/13 10:07:38;;;;;;;5.50;3.38;;;13.20;99.90;;;;;;6286394;28;20085;-83
2021/12/13 10:10:47;;;;;;;7.05;5.35;;;13.10;99.90;;;;;;6285368;28;20028;-83
2021/12/13 10:13:48;;;;;;;11.30;5.65;;;13.30;99.90;;;;;;6286543;28;20051;-82
2021/12/13 10:16:51;;;;;;;7.70;4.68;;;13.30;99.90;;;;;;6285448;28;20064;-84
2021/12/13 10:19:54;;;;;;;5.93;3.92;;;13.60;99.90;;;;;;6286431;28;20028;-84
2021/12/13 10:22:54;;;;;;;10.00;5.85;;;13.90;99.90;;;;;;6285756;28;20024;-84
2021/12/13 10:25:56;;;;;;;4.03;3.28;;;14.00;99.60;;;;;;6285629;28;20035;-84
2021/12/13 10:28:59;;;;;;;4.72;3.60;;;14.50;98.90;;;;;;6285231;28;20070;-85
2021/12/13 10:32:12;;;;;;;6.38;3.45;;;14.70;97.80;;;;;;6285470;28;20032;-84
2021/12/13 10:35:19;;;;;;;4.28;3.15;;;15.10;97.10;;;;;;6287049;28;20055;-83
2021/12/13 10:38:24;;;;;;;3.25;2.95;;;15.50;97.80;;;;;;6285876;28;20040;-84
2021/12/13 10:41:28;;;;;;;3.58;3.00;;;15.80;96.70;;;;;;6285927;28;20035;-84
2021/12/13 10:44:30;;;;;;;3.80;2.80;;;15.90;95.80;;;;;;6284760;28;20031;-83
2021/12/13 10:47:36;;;;;;;4.73;3.27;;;15.80;93.20;;;;;;6286287;28;20028;-88
2021/12/13 10:50:49;;;;;;;3.38;2.83;;;15.80;93.20;;;;;;6286247;28;20026;-86
2021/12/13 10:53:50;;;;;;;5.07;3.13;;;16.00;92.60;;;;;;6287196;28;20028;-86
2021/12/13 10:57:13;;;;;;;4.22;2.50;;;15.70;92.20;;;;;;6285761;28;20546;-87
2021/12/13 11:00:23;;;;;;;3.67;2.60;;;15.60;92.10;;;;;;6304372;28;20036;-88
2021/12/13 11:03:24;;;;;;;3.90;2.72;;;15.60;93.10;;;;;;6286527;28;20035;-87
2021/12/13 11:06:25;;;;;;;5.53;3.90;;;15.50;92.70;;;;;;6285749;28;20039;-87
2021/12/13 11:09:25;;;;;;;5.10;4.13;;;15.30;92.50;;;;;;6301102;28;20024;-89
2021/12/13 11:12:36;;;;;;;7.60;4.03;;;15.10;92.80;;;;;;6284647;28;20117;-87
2021/12/13 11:15:38;;;;;;;4.82;4.32;;;14.90;92.80;;;;;;6299766;28;20036;-89
2021/12/13 11:18:39;;;;;;;4.68;4.18;;;14.70;93.80;;;;;;6300188;28;20146;-87
2021/12/13 11:21:42;;;;;;;9.18;5.88;;;14.60;93.90;;;;;;6282995;28;20117;-88
2021/12/13 11:24:44;;;;;;;7.30;5.00;;;14.60;93.80;;;;;;6285118;28;20031;-87
2021/12/13 11:27:46;;;;;;;7.65;4.60;;;14.50;94.20;;;;;;6300047;28;20061;-86
2021/12/13 11:30:47;;;;;;;9.47;6.07;;;14.40;95.10;;;;;;6282893;28;20044;-86
2021/12/13 11:34:16;;;;;;;7.60;5.70;;;14.30;94.50;;;;;;6283044;28;20369;-86
2021/12/13 11:37:40;;;;;;;9.00;4.90;;;14.20;95.20;;;;;;6316923;28;20039;-84
2021/12/13 11:41:03;;;;;;;6.07;4.60;;;13.80;97.50;;;;;;6283260;28;20711;-86
2021/12/13 11:44:21;;;;;;;7.38;4.70;;;13.60;96.30;;;;;;6316278;28;20466;-83
2021/12/13 11:47:40;;;;;;;4.80;4.20;;;13.70;98.40;;;;;;6317458;28;20071;-85
2021/12/13 11:50:59;;;;;;;8.00;3.22;;;13.60;98.30;;;;;;6316284;28;20036;-88
2021/12/13 11:54:27;;;;;;;6.07;4.03;;;13.50;97.30;;;;;;6317848;28;20036;-88
2021/12/13 11:57:46;;;;;;;7.38;3.47;;;13.40;99.90;;;;;;6304352;28;20036;-80
2021/12/13 12:01:11;;;;;;;5.43;3.70;;;13.10;99.90;;;;;;6320109;28;20024;-86
2021/12/13 12:04:50;;;;;;;6.03;3.95;;;13.10;98.70;;;;;;6316588;28;20912;-86
2021/12/13 12:08:19;;;;;;;5.65;4.25;;;13.00;98.80;;;;;;6313228;28;20135;-87
2021/12/13 12:11:50;;;;;;;6.35;5.05;;;12.90;99.30;;;;;;6295011;28;20043;-86
2021/12/13 12:14:58;;;;;;;7.72;5.20;;;12.80;99.90;;;;;;6310390;28;20134;-86
2021/12/13 12:18:03;;;;;;;7.10;5.60;;;12.70;99.90;;;;;;6285709;28;20123;-86
2021/12/13 12:21:28;;;;;;;7.00;5.70;;;12.50;99.90;;;;;;6301150;28;20123;-84
2021/12/13 12:24:30;;;;;;;7.15;5.20;;;12.30;99.90;;;;;;6309133;28;20408;-85
2021/12/13 12:27:32;;;;;;;8.20;5.30;;;12.40;99.90;;;;;;6298777;28;20127;-86
2021/12/13 12:30:36;;;;;;;8.25;4.65;;;12.40;99.90;;;;;;6281291;28;20044;-86
2021/12/13 12:33:38;;;;;;;6.22;4.07;;;12.40;99.90;;;;;;6299932;28;20040;-85
2021/12/13 12:36:59;;;;;;;6.57;4.60;;;12.20;99.90;;;;;;6282177;28;20055;-86
2021/12/13 12:40:09;;;;;;;7.18;4.55;;;12.10;99.90;;;;;;6284926;28;20097;-84
2021/12/13 12:43:11;;;;;;;5.15;4.05;;;12.00;99.90;;;;;;6316667;28;20070;-85
2021/12/13 12:46:13;;;;;;;;;;;11.90;99.90;;;;;;6282602;28;20130;-86
2021/12/13 12:49:16;;;;;;;7.47;4.63;;;11.80;99.90;;;;;;6298716;28;20027;-85
2021/12/13 12:52:17;;;;;;;6.20;4.00;;;12.10;99.90;;;;;;6298464;28;20028;-85
2021/12/13 12:55:19;;;;;;;5.05;3.78;;;11.80;99.90;;;;;;6281513;28;20031;-86
2021/12/13 12:58:26;;;;;;;5.15;3.67;;;11.70;99.90;;;;;;6282540;28;20020;-85
2021/12/13 13:01:47;;;;;;;6.07;3.85;;;11.70;99.90;;;;;;6282527;28;20520;-84
2021/12/13 13:04:50;;;;;;;4.45;3.58;;;11.30;99.90;;;;;;6299594;28;20032;-86
2021/12/13 13:07:51;;;;;;;4.75;3.20;;;10.90;99.90;;;;;;6298499;28;20142;-85
2021/12/13 13:14:18;;;;;;;5.00;3.40;;;10.90;99.90;;;;;;6289853;28;20024;-85
2021/12/13 13:17:23;;;;;;;5.25;3.25;;;11.10;99.90;;;;;;6296055;28;20052;-84
2021/12/13 13:20:28;;;;;;;5.28;3.70;;;11.20;99.90;;;;;;6281440;28;20040;-85
2021/12/13 13:23:36;;;;;;;5.38;3.30;;;11.10;99.90;;;;;;6298381;28;20465;-84
2021/12/13 13:26:37;;;;;;;4.25;3.65;;;11.10;99.90;;;;;;6282706;28;20457;-88
2021/12/13 13:29:37;;;;;;;4.63;3.20;;;11.00;99.90;;;;;;6276693;28;20048;-85
2021/12/13 13:32:38;;;;;;;3.78;3.15;;;11.00;99.90;;;;;;6279897;28;20036;-85
2021/12/13 13:35:39;;;;;;;3.78;2.83;;;11.00;99.90;;;;;;6281964;28;20044;-85
2021/12/13 13:38:39;;;;;;;4.63;3.00;;;10.90;99.90;;;;;;6279300;28;20032;-86
2021/12/13 13:41:40;;;;;;;4.80;3.30;;;10.90;99.90;;;;;;6279753;28;20032;-85
2021/12/13 13:45:05;;;;;;;4.57;3.13;;;11.40;99.90;;;;;;6279686;28;20469;-85
2021/12/13 13:48:16;;;;;;;5.43;2.90;;;10.80;99.90;;;;;;6304368;28;20114;-85
2021/12/13 13:51:17;;;;;;;5.85;4.18;;;10.70;99.90;;;;;;6316658;28;20408;-85
2021/12/13 13:54:18;;;;;;;6.18;4.03;;;10.60;99.90;;;;;;6284686;28;20491;-85
2021/12/13 13:57:27;;;;;;;7.72;4.55;;;10.00;99.90;;;;;;6285681;28;20040;-85
2021/12/13 14:00:37;;;;;;;6.03;4.97;;;10.40;99.90;;;;;;6303737;28;20028;-86
2021/12/13 14:03:40;;;;;;;8.35;5.95;;;10.10;99.90;;;;;;6272365;28;20060;-85
2021/12/13 14:06:42;;;;;;;9.35;6.38;;;10.10;99.90;;;;;;6286297;28;20038;-84
2021/12/13 14:10:10;;;;;;;8.65;6.38;;;9.50;99.90;;;;;;6302314;28;20024;-85
2021/12/13 14:13:14;;;;;;;6.75;5.60;;;9.80;99.90;;;;;;6313580;28;20055;-90
2021/12/13 14:16:25;;;;;;;8.93;5.90;;;10.00;99.90;;;;;;6303590;28;20024;-91
2021/12/13 14:19:27;;;;;;;7.50;6.30;;;9.10;99.90;;;;;;6320645;28;20051;-88
2021/12/13 14:22:31;;;;;;;;;;;10.10;99.90;;;;;;6304731;28;20032;-86
2021/12/13 14:25:36;;;;;;;8.15;6.10;;;8.90;99.90;;;;;;6302895;28;19908;-85
2021/12/13 14:28:55;;;;;;;7.43;5.55;;;8.80;99.90;;;;;;6303358;28;20036;-88
2021/12/13 14:31:56;;;;;;;8.40;6.28;;;8.80;99.90;;;;;;6304339;28;20044;-89
2021/12/13 14:34:57;;;;;;;8.02;5.80;;;8.70;99.90;;;;;;6285711;28;20644;-90
2021/12/13 14:38:11;;;;;;;12.32;6.05;;;8.70;99.90;;;;;;6285673;28;20051;-88
2021/12/13 14:41:13;;;;;;;6.93;6.22;;;8.60;99.90;;;;;;6285613;28;20042;-85
2021/12/13 14:44:15;;;;;;;10.25;5.78;;;8.70;99.90;;;;;;6301411;28;20051;-88
2021/12/13 14:47:17;;;;;;;;;;;8.60;99.90;;;;;;6282848;28;20032;-86
2021/12/13 14:50:23;;;;;;;6.88;5.80;;;8.50;99.90;;;;;;6300363;28;19948;-87
2021/12/13 14:53:28;;;;;;;8.75;5.70;;;8.40;99.90;;;;;;6300849;28;20031;-88
2021/12/13 14:56:29;;;;;;;7.53;5.80;;;;;;;;;;6272867;28;20047;-87
2021/12/13 14:59:30;;;;;;;8.07;6.03;;;8.50;99.90;;;;;;6301744;28;20020;-91
2021/12/13 15:02:35;;;;;;;7.67;5.83;;;8.20;99.90;;;;;;6302303;28;20032;-84
2021/12/13 15:05:41;;;;;;;9.77;6.57;;;8.40;99.90;;;;;;6285202;28;20032;-85
2021/12/13 15:08:44;;;;;;;8.50;6.38;;;8.20;99.90;;;;;;6301957;28;20042;-82
2021/12/13 15:11:48;;;;;;;10.88;7.07;;;8.40;99.90;;;;;;6282882;28;20031;-84
2021/12/13 15:14:54;;;;;;;9.40;6.55;;;7.90;99.90;;;;;;6284422;28;20478;-86
2021/12/13 15:17:57;;;;;;;9.07;6.50;;;7.90;99.90;;;;;;6302521;28;20039;-86
2021/12/13 15:21:01;;;;;;;10.88;6.43;;;7.80;99.90;;;;;;6283820;28;20032;-86
2021/12/13 15:24:02;;;;;;;8.25;5.75;;;7.80;99.90;;;;;;6284139;28;20047;-85
2021/12/13 15:27:13;;;;;;;7.38;6.18;;;7.80;99.90;;;;;;6300149;28;20028;-84
2021/12/13 15:30:22;;;;;;;9.38;6.28;;;7.60;99.90;;;;;;6283280;28;20055;-83
2021/12/13 15:33:26;;;;;;;9.50;6.63;;;7.40;99.90;;;;;;6317204;28;20469;-83
2021/12/13 15:36:27;;;;;;;8.20;5.63;;;7.40;99.90;;;;;;6300129;28;20044;-84
2021/12/13 15:39:29;;;;;;;14.17;11.57;;;;;;;;;;6283605;28;20021;-84
2021/12/13 15:42:30;;;;;;;12.48;8.20;;;7.00;99.90;;;;;;6299786;28;20655;-83
2021/12/13 15:45:31;;;;;;;10.80;6.32;;;7.00;99.90;;;;;;6300424;28;20031;-84
2021/12/13 15:52:17;;;;;;;9.55;5.30;;;6.70;99.90;;;;;;6304596;28;20115;-82
2021/12/13 15:55:20;;;;;;;9.05;5.55;;;6.50;99.90;;;;;;6316676;28;20508;-83
2021/12/13 15:58:31;;;;;;;10.45;5.82;;;6.40;99.90;;;;;;6300293;28;20119;-83
2021/12/13 16:01:37;;;;;;;7.93;5.07;;;7.10;99.90;;;;;;6317086;28;20085;-84
2021/12/13 16:04:40;;;;;;;14.38;6.35;;;6.10;99.90;;;;;;6284322;28;20024;-83
2021/12/13 16:07:43;;;;;;;7.55;5.50;;;6.00;99.90;;;;;;6298289;28;20020;-85
2021/12/13 16:10:43;;;;;;;9.32;5.82;;;5.90;99.90;;;;;;6299628;28;20034;-82
2021/12/13 16:13:45;;;;;;;10.35;6.30;;;6.50;99.90;;;;;;6299916;28;20020;-85
2021/12/13 16:17:06;;;;;;;11.15;6.80;;;5.70;99.90;;;;;;6283261;28;20039;-83
2021/12/13 16:20:17;;;;;;;8.57;6.53;;;5.60;99.90;;;;;;6318084;28;20024;-85
2021/12/13 16:23:22;;;;;;;10.85;7.38;;;6.40;99.90;;;;;;6299914;28;20032;-83
2021/12/13 16:26:28;;;;;;;16.10;7.97;;;6.70;99.90;;;;;;6300146;28;20031;-82
2021/12/13 16:29:29;;;;;;;13.77;8.75;;;5.00;99.90;;;;;;6282806;28;20486;-84
2021/12/13 16:32:31;;;;;;;11.80;8.32;;;4.60;99.90;;;;;;6299231;28;20043;-82
2021/12/13 16:35:32;;;;;;;11.40;7.87;;;4.60;99.90;;;;;;6299748;28;20073;-82
2021/12/13 16:38:33;;;;;;;15.70;8.93;;;4.60;99.90;;;;;;6316453;28;20062;-81
2021/12/13 16:41:34;;;;;;;13.60;9.10;;;6.30;99.90;;;;;;6298203;28;20024;-81